sensor_id;sensor_type;location;lat;lon;timestamp;P1;durP1;ratioP1;P2;durP2;ratioP2
34142;SDS011;20419;10.658;106.724;2022-10-15T00:01:07;11.27;;;9.95;;
34142;SDS011;20419;10.658;106.724;2022-10-15T00:03:35;11.75;;;10.55;;
34142;SDS011;20419;10.658;106.724;2022-10-15T00:06:06;12.90;;;11.57;;
34142;SDS011;20419;10.658;106.724;2022-10-15T00:08:34;12.20;;;10.90;;
34142;SDS011;20419;10.658;106.724;2022-10-15T00:11:02;11.97;;;10.57;;
34142;SDS011;20419;10.658;106.724;2022-10-15T00:13:29;11.35;;;10.27;;
34142;SDS011;20419;10.658;106.724;2022-10-15T00:15:57;11.43;;;10.20;;
34142;SDS011;20419;10.658;106.724;2022-10-15T00:18:24;11.05;;;9.95;;
34142;SDS011;20419;10.658;106.724;2022-10-15T00:20:51;12.65;;;10.20;;
34142;SDS011;20419;10.658;106.724;2022-10-15T00:23:18;12.35;;;10.90;;
34142;SDS011;20419;10.658;106.724;2022-10-15T00:25:45;11.75;;;10.23;;
34142;SDS011;20419;10.658;106.724;2022-10-15T00:28:12;11.68;;;10.13;;
34142;SDS011;20419;10.658;106.724;2022-10-15T00:30:39;11.82;;;10.55;;
34142;SDS011;20419;10.658;106.724;2022-10-15T00:33:05;12.93;;;11.05;;
34142;SDS011;20419;10.658;106.724;2022-10-15T00:35:32;11.07;;;10.00;;
34142;SDS011;20419;10.658;106.724;2022-10-15T00:37:59;12.15;;;9.82;;
34142;SDS011;20419;10.658;106.724;2022-10-15T00:40:26;11.68;;;10.48;;
34142;SDS011;20419;10.658;106.724;2022-10-15T00:42:53;12.23;;;10.93;;
34142;SDS011;20419;10.658;106.724;2022-10-15T00:45:20;11.68;;;10.48;;
34142;SDS011;20419;10.658;106.724;2022-10-15T00:47:47;12.05;;;10.75;;
34142;SDS011;20419;10.658;106.724;2022-10-15T00:50:21;11.85;;;10.65;;
34142;SDS011;20419;10.658;106.724;2022-10-15T00:55:31;11.63;;;10.43;;
34142;SDS011;20419;10.658;106.724;2022-10-15T00:58:01;11.30;;;9.57;;
34142;SDS011;20419;10.658;106.724;2022-10-15T01:00:30;11.27;;;10.13;;
34142;SDS011;20419;10.658;106.724;2022-10-15T01:02:57;11.30;;;10.13;;
34142;SDS011;20419;10.658;106.724;2022-10-15T01:05:24;11.73;;;10.52;;
34142;SDS011;20419;10.658;106.724;2022-10-15T01:07:52;11.88;;;10.23;;
34142;SDS011;20419;10.658;106.724;2022-10-15T01:10:19;12.20;;;10.27;;
34142;SDS011;20419;10.658;106.724;2022-10-15T01:15:24;11.40;;;10.07;;
34142;SDS011;20419;10.658;106.724;2022-10-15T01:17:56;11.52;;;10.32;;
34142;SDS011;20419;10.658;106.724;2022-10-15T01:23:12;11.20;;;10.00;;
34142;SDS011;20419;10.658;106.724;2022-10-15T01:28:13;12.00;;;9.85;;
34142;SDS011;20419;10.658;106.724;2022-10-15T01:30:46;12.40;;;10.23;;
34142;SDS011;20419;10.658;106.724;2022-10-15T01:33:16;13.45;;;10.25;;
34142;SDS011;20419;10.658;106.724;2022-10-15T01:38:40;13.57;;;10.50;;
34142;SDS011;20419;10.658;106.724;2022-10-15T01:41:31;12.27;;;11.07;;
34142;SDS011;20419;10.658;106.724;2022-10-15T01:44:03;11.10;;;10.00;;
34142;SDS011;20419;10.658;106.724;2022-10-15T01:49:05;12.15;;;10.68;;
34142;SDS011;20419;10.658;106.724;2022-10-15T01:51:34;11.80;;;9.82;;
34142;SDS011;20419;10.658;106.724;2022-10-15T01:54:06;10.70;;;9.60;;
34142;SDS011;20419;10.658;106.724;2022-10-15T01:56:34;14.88;;;10.57;;
34142;SDS011;20419;10.658;106.724;2022-10-15T01:59:02;11.48;;;9.75;;
34142;SDS011;20419;10.658;106.724;2022-10-15T02:01:30;11.55;;;10.38;;
34142;SDS011;20419;10.658;106.724;2022-10-15T02:03:57;12.68;;;10.52;;
34142;SDS011;20419;10.658;106.724;2022-10-15T02:06:37;12.10;;;10.43;;
34142;SDS011;20419;10.658;106.724;2022-10-15T02:09:16;12.43;;;10.57;;
34142;SDS011;20419;10.658;106.724;2022-10-15T02:14:41;14.45;;;9.60;;
34142;SDS011;20419;10.658;106.724;2022-10-15T02:17:09;12.90;;;10.40;;
34142;SDS011;20419;10.658;106.724;2022-10-15T02:19:39;11.27;;;9.85;;
34142;SDS011;20419;10.658;106.724;2022-10-15T02:22:11;12.77;;;10.35;;
34142;SDS011;20419;10.658;106.724;2022-10-15T02:25:24;12.13;;;10.05;;
34142;SDS011;20419;10.658;106.724;2022-10-15T02:27:26;12.43;;;10.32;;
34142;SDS011;20419;10.658;106.724;2022-10-15T02:29:53;15.23;;;10.00;;
34142;SDS011;20419;10.658;106.724;2022-10-15T02:32:23;13.50;;;9.90;;
34142;SDS011;20419;10.658;106.724;2022-10-15T02:34:50;14.15;;;9.70;;
34142;SDS011;20419;10.658;106.724;2022-10-15T02:37:19;13.35;;;10.38;;
34142;SDS011;20419;10.658;106.724;2022-10-15T02:39:46;11.93;;;10.30;;
34142;SDS011;20419;10.658;106.724;2022-10-15T02:42:14;11.32;;;9.20;;
34142;SDS011;20419;10.658;106.724;2022-10-15T02:44:42;12.30;;;10.73;;
34142;SDS011;20419;10.658;106.724;2022-10-15T02:47:09;12.45;;;11.13;;
34142;SDS011;20419;10.658;106.724;2022-10-15T02:49:36;13.95;;;9.82;;
34142;SDS011;20419;10.658;106.724;2022-10-15T02:52:03;12.93;;;10.30;;
34142;SDS011;20419;10.658;106.724;2022-10-15T02:54:30;12.05;;;10.25;;
34142;SDS011;20419;10.658;106.724;2022-10-15T02:56:57;11.70;;;9.52;;
34142;SDS011;20419;10.658;106.724;2022-10-15T02:59:23;11.82;;;9.82;;
34142;SDS011;20419;10.658;106.724;2022-10-15T03:01:50;11.60;;;9.55;;
34142;SDS011;20419;10.658;106.724;2022-10-15T03:04:17;11.10;;;9.65;;
34142;SDS011;20419;10.658;106.724;2022-10-15T03:06:44;11.25;;;9.45;;
34142;SDS011;20419;10.658;106.724;2022-10-15T03:09:11;13.23;;;10.00;;
34142;SDS011;20419;10.658;106.724;2022-10-15T03:11:38;13.30;;;9.80;;
34142;SDS011;20419;10.658;106.724;2022-10-15T03:14:05;12.80;;;9.93;;
34142;SDS011;20419;10.658;106.724;2022-10-15T03:16:32;10.70;;;9.50;;
34142;SDS011;20419;10.658;106.724;2022-10-15T03:18:58;13.70;;;10.40;;
34142;SDS011;20419;10.658;106.724;2022-10-15T03:21:25;11.23;;;10.07;;
34142;SDS011;20419;10.658;106.724;2022-10-15T03:23:56;11.27;;;10.05;;
34142;SDS011;20419;10.658;106.724;2022-10-15T03:26:23;12.77;;;10.07;;
34142;SDS011;20419;10.658;106.724;2022-10-15T03:28:50;12.38;;;10.85;;
34142;SDS011;20419;10.658;106.724;2022-10-15T03:31:16;11.43;;;10.02;;
34142;SDS011;20419;10.658;106.724;2022-10-15T03:33:44;11.55;;;9.98;;
34142;SDS011;20419;10.658;106.724;2022-10-15T03:36:10;11.20;;;9.70;;
34142;SDS011;20419;10.658;106.724;2022-10-15T03:38:37;12.20;;;9.70;;
34142;SDS011;20419;10.658;106.724;2022-10-15T03:41:04;12.13;;;10.48;;
34142;SDS011;20419;10.658;106.724;2022-10-15T03:43:31;14.45;;;10.38;;
34142;SDS011;20419;10.658;106.724;2022-10-15T03:46:02;10.50;;;9.40;;
34142;SDS011;20419;10.658;106.724;2022-10-15T03:48:29;12.63;;;11.00;;
34142;SDS011;20419;10.658;106.724;2022-10-15T03:50:56;10.95;;;9.85;;
34142;SDS011;20419;10.658;106.724;2022-10-15T03:53:23;17.13;;;9.50;;
34142;SDS011;20419;10.658;106.724;2022-10-15T03:55:50;11.05;;;9.73;;
34142;SDS011;20419;10.658;106.724;2022-10-15T03:58:17;11.43;;;9.82;;
34142;SDS011;20419;10.658;106.724;2022-10-15T04:00:55;10.93;;;9.82;;
34142;SDS011;20419;10.658;106.724;2022-10-15T04:03:22;10.82;;;9.73;;
34142;SDS011;20419;10.658;106.724;2022-10-15T04:05:52;11.10;;;9.48;;
34142;SDS011;20419;10.658;106.724;2022-10-15T04:08:19;10.98;;;9.15;;
34142;SDS011;20419;10.658;106.724;2022-10-15T04:10:46;12.05;;;10.20;;
34142;SDS011;20419;10.658;106.724;2022-10-15T04:13:13;11.05;;;9.88;;
34142;SDS011;20419;10.658;106.724;2022-10-15T04:15:39;10.15;;;9.13;;
34142;SDS011;20419;10.658;106.724;2022-10-15T04:18:06;11.98;;;9.95;;
34142;SDS011;20419;10.658;106.724;2022-10-15T04:20:33;10.43;;;9.43;;
34142;SDS011;20419;10.658;106.724;2022-10-15T04:23:00;10.25;;;9.25;;
34142;SDS011;20419;10.658;106.724;2022-10-15T04:25:27;10.70;;;9.63;;
34142;SDS011;20419;10.658;106.724;2022-10-15T04:27:54;10.40;;;9.32;;
34142;SDS011;20419;10.658;106.724;2022-10-15T04:30:21;11.27;;;9.52;;
34142;SDS011;20419;10.658;106.724;2022-10-15T04:32:50;11.85;;;10.65;;
34142;SDS011;20419;10.658;106.724;2022-10-15T04:35:17;10.55;;;9.50;;
34142;SDS011;20419;10.658;106.724;2022-10-15T04:37:44;11.52;;;9.57;;
34142;SDS011;20419;10.658;106.724;2022-10-15T04:40:11;11.13;;;10.02;;
34142;SDS011;20419;10.658;106.724;2022-10-15T04:42:38;10.90;;;9.15;;
34142;SDS011;20419;10.658;106.724;2022-10-15T04:45:06;11.82;;;10.02;;
34142;SDS011;20419;10.658;106.724;2022-10-15T04:47:33;10.10;;;9.10;;
34142;SDS011;20419;10.658;106.724;2022-10-15T04:50:00;10.40;;;9.35;;
34142;SDS011;20419;10.658;106.724;2022-10-15T04:52:27;11.63;;;10.02;;
34142;SDS011;20419;10.658;106.724;2022-10-15T04:54:54;10.52;;;9.43;;
34142;SDS011;20419;10.658;106.724;2022-10-15T04:57:22;11.00;;;9.77;;
34142;SDS011;20419;10.658;106.724;2022-10-15T04:59:49;10.27;;;8.98;;
34142;SDS011;20419;10.658;106.724;2022-10-15T05:02:17;11.05;;;9.90;;
34142;SDS011;20419;10.658;106.724;2022-10-15T05:04:44;11.77;;;9.25;;
34142;SDS011;20419;10.658;106.724;2022-10-15T05:07:11;11.50;;;10.32;;
34142;SDS011;20419;10.658;106.724;2022-10-15T05:09:38;10.82;;;9.48;;
34142;SDS011;20419;10.658;106.724;2022-10-15T05:12:05;10.13;;;9.00;;
34142;SDS011;20419;10.658;106.724;2022-10-15T05:14:32;10.35;;;9.25;;
34142;SDS011;20419;10.658;106.724;2022-10-15T05:17:01;10.20;;;9.20;;
34142;SDS011;20419;10.658;106.724;2022-10-15T05:19:28;11.33;;;9.40;;
34142;SDS011;20419;10.658;106.724;2022-10-15T05:21:56;10.88;;;9.70;;
34142;SDS011;20419;10.658;106.724;2022-10-15T05:24:23;10.57;;;9.48;;
34142;SDS011;20419;10.658;106.724;2022-10-15T05:26:49;10.80;;;9.70;;
34142;SDS011;20419;10.658;106.724;2022-10-15T05:29:16;11.18;;;9.00;;
34142;SDS011;20419;10.658;106.724;2022-10-15T05:31:43;10.88;;;9.40;;
34142;SDS011;20419;10.658;106.724;2022-10-15T05:34:11;10.98;;;8.85;;
34142;SDS011;20419;10.658;106.724;2022-10-15T05:36:38;10.70;;;9.60;;
34142;SDS011;20419;10.658;106.724;2022-10-15T05:39:05;10.93;;;9.20;;
34142;SDS011;20419;10.658;106.724;2022-10-15T05:41:35;10.55;;;9.27;;
34142;SDS011;20419;10.658;106.724;2022-10-15T05:44:02;10.57;;;9.27;;
34142;SDS011;20419;10.658;106.724;2022-10-15T05:46:29;10.48;;;9.23;;
34142;SDS011;20419;10.658;106.724;2022-10-15T05:48:56;11.07;;;9.82;;
34142;SDS011;20419;10.658;106.724;2022-10-15T05:51:24;10.55;;;8.95;;
34142;SDS011;20419;10.658;106.724;2022-10-15T05:53:51;10.40;;;9.30;;
34142;SDS011;20419;10.658;106.724;2022-10-15T05:56:18;10.52;;;9.40;;
34142;SDS011;20419;10.658;106.724;2022-10-15T05:58:45;10.13;;;8.82;;
34142;SDS011;20419;10.658;106.724;2022-10-15T06:01:12;10.55;;;9.40;;
34142;SDS011;20419;10.658;106.724;2022-10-15T06:03:39;11.20;;;9.15;;
34142;SDS011;20419;10.658;106.724;2022-10-15T06:06:13;11.93;;;9.25;;
34142;SDS011;20419;10.658;106.724;2022-10-15T06:08:40;10.40;;;9.20;;
34142;SDS011;20419;10.658;106.724;2022-10-15T06:11:07;10.98;;;8.70;;
34142;SDS011;20419;10.658;106.724;2022-10-15T06:13:33;12.93;;;8.98;;
34142;SDS011;20419;10.658;106.724;2022-10-15T06:16:01;10.35;;;9.13;;
34142;SDS011;20419;10.658;106.724;2022-10-15T06:18:29;10.10;;;9.10;;
34142;SDS011;20419;10.658;106.724;2022-10-15T06:20:55;10.38;;;9.27;;
34142;SDS011;20419;10.658;106.724;2022-10-15T06:23:22;10.82;;;9.65;;
34142;SDS011;20419;10.658;106.724;2022-10-15T06:25:49;9.73;;;8.73;;
34142;SDS011;20419;10.658;106.724;2022-10-15T06:28:16;9.88;;;8.70;;
34142;SDS011;20419;10.658;106.724;2022-10-15T06:30:43;10.45;;;9.38;;
34142;SDS011;20419;10.658;106.724;2022-10-15T06:33:10;10.63;;;9.05;;
34142;SDS011;20419;10.658;106.724;2022-10-15T06:35:37;11.32;;;9.05;;
34142;SDS011;20419;10.658;106.724;2022-10-15T06:38:05;11.65;;;9.10;;
34142;SDS011;20419;10.658;106.724;2022-10-15T06:40:32;12.07;;;9.27;;
34142;SDS011;20419;10.658;106.724;2022-10-15T06:43:03;10.77;;;9.15;;
34142;SDS011;20419;10.658;106.724;2022-10-15T06:45:30;13.05;;;9.20;;
34142;SDS011;20419;10.658;106.724;2022-10-15T06:47:57;12.65;;;9.27;;
34142;SDS011;20419;10.658;106.724;2022-10-15T06:50:24;11.77;;;9.02;;
34142;SDS011;20419;10.658;106.724;2022-10-15T06:52:50;12.52;;;9.85;;
34142;SDS011;20419;10.658;106.724;2022-10-15T06:55:17;13.07;;;9.35;;
34142;SDS011;20419;10.658;106.724;2022-10-15T06:57:44;10.40;;;9.23;;
34142;SDS011;20419;10.658;106.724;2022-10-15T07:00:11;10.55;;;9.15;;
34142;SDS011;20419;10.658;106.724;2022-10-15T07:02:38;11.63;;;9.27;;
34142;SDS011;20419;10.658;106.724;2022-10-15T07:05:05;11.18;;;9.05;;
34142;SDS011;20419;10.658;106.724;2022-10-15T07:07:32;10.30;;;8.57;;
34142;SDS011;20419;10.658;106.724;2022-10-15T07:09:59;11.00;;;8.70;;
34142;SDS011;20419;10.658;106.724;2022-10-15T07:12:26;11.68;;;9.32;;
34142;SDS011;20419;10.658;106.724;2022-10-15T07:14:53;9.52;;;8.15;;
34142;SDS011;20419;10.658;106.724;2022-10-15T07:17:20;10.38;;;8.00;;
34142;SDS011;20419;10.658;106.724;2022-10-15T07:19:47;9.27;;;8.27;;
34142;SDS011;20419;10.658;106.724;2022-10-15T07:22:14;10.02;;;8.82;;
34142;SDS011;20419;10.658;106.724;2022-10-15T07:24:41;10.02;;;8.40;;
34142;SDS011;20419;10.658;106.724;2022-10-15T07:27:08;9.65;;;8.63;;
34142;SDS011;20419;10.658;106.724;2022-10-15T07:29:35;10.00;;;8.20;;
34142;SDS011;20419;10.658;106.724;2022-10-15T07:32:02;11.43;;;8.90;;
34142;SDS011;20419;10.658;106.724;2022-10-15T07:34:29;10.35;;;9.25;;
34142;SDS011;20419;10.658;106.724;2022-10-15T07:36:56;10.15;;;9.15;;
34142;SDS011;20419;10.658;106.724;2022-10-15T07:39:23;10.10;;;8.18;;
34142;SDS011;20419;10.658;106.724;2022-10-15T07:41:50;10.35;;;9.05;;
34142;SDS011;20419;10.658;106.724;2022-10-15T07:44:17;11.43;;;9.35;;
34142;SDS011;20419;10.658;106.724;2022-10-15T07:46:45;9.40;;;8.50;;
34142;SDS011;20419;10.658;106.724;2022-10-15T07:49:13;9.52;;;8.52;;
34142;SDS011;20419;10.658;106.724;2022-10-15T07:51:40;8.98;;;8.05;;
34142;SDS011;20419;10.658;106.724;2022-10-15T07:54:07;9.73;;;8.73;;
34142;SDS011;20419;10.658;106.724;2022-10-15T07:56:34;9.38;;;8.35;;
34142;SDS011;20419;10.658;106.724;2022-10-15T07:59:01;9.43;;;8.43;;
34142;SDS011;20419;10.658;106.724;2022-10-15T08:01:28;9.93;;;8.38;;
34142;SDS011;20419;10.658;106.724;2022-10-15T08:03:55;10.13;;;8.82;;
34142;SDS011;20419;10.658;106.724;2022-10-15T08:06:22;8.88;;;7.90;;
34142;SDS011;20419;10.658;106.724;2022-10-15T08:08:49;10.18;;;8.65;;
34142;SDS011;20419;10.658;106.724;2022-10-15T08:11:16;9.50;;;8.45;;
34142;SDS011;20419;10.658;106.724;2022-10-15T08:13:43;12.30;;;8.32;;
34142;SDS011;20419;10.658;106.724;2022-10-15T08:16:12;8.05;;;7.18;;
34142;SDS011;20419;10.658;106.724;2022-10-15T08:18:40;11.35;;;8.65;;
34142;SDS011;20419;10.658;106.724;2022-10-15T08:21:07;10.68;;;7.78;;
34142;SDS011;20419;10.658;106.724;2022-10-15T08:23:35;8.93;;;8.02;;
34142;SDS011;20419;10.658;106.724;2022-10-15T08:26:02;9.35;;;8.30;;
34142;SDS011;20419;10.658;106.724;2022-10-15T08:28:30;9.77;;;8.75;;
34142;SDS011;20419;10.658;106.724;2022-10-15T08:30:57;10.03;;;8.23;;
34142;SDS011;20419;10.658;106.724;2022-10-15T08:33:24;10.02;;;8.30;;
34142;SDS011;20419;10.658;106.724;2022-10-15T08:35:51;9.30;;;8.20;;
34142;SDS011;20419;10.658;106.724;2022-10-15T08:38:18;9.27;;;8.23;;
34142;SDS011;20419;10.658;106.724;2022-10-15T08:40:53;9.02;;;7.93;;
34142;SDS011;20419;10.658;106.724;2022-10-15T08:43:24;9.27;;;8.32;;
34142;SDS011;20419;10.658;106.724;2022-10-15T08:45:56;9.55;;;8.20;;
34142;SDS011;20419;10.658;106.724;2022-10-15T08:48:27;10.38;;;8.20;;
34142;SDS011;20419;10.658;106.724;2022-10-15T08:53:26;10.10;;;7.90;;
34142;SDS011;20419;10.658;106.724;2022-10-15T08:55:58;8.77;;;7.83;;
34142;SDS011;20419;10.658;106.724;2022-10-15T09:00:56;9.40;;;7.93;;
34142;SDS011;20419;10.658;106.724;2022-10-15T09:08:39;8.98;;;8.02;;
34142;SDS011;20419;10.658;106.724;2022-10-15T09:13:40;9.60;;;7.78;;
34142;SDS011;20419;10.658;106.724;2022-10-15T09:16:21;8.63;;;7.72;;
34142;SDS011;20419;10.658;106.724;2022-10-15T09:18:49;9.50;;;8.50;;
34142;SDS011;20419;10.658;106.724;2022-10-15T09:21:19;9.15;;;8.13;;
34142;SDS011;20419;10.658;106.724;2022-10-15T09:23:47;8.93;;;8.02;;
34142;SDS011;20419;10.658;106.724;2022-10-15T09:26:20;9.20;;;7.97;;
34142;SDS011;20419;10.658;106.724;2022-10-15T09:28:55;8.45;;;7.38;;
34142;SDS011;20419;10.658;106.724;2022-10-15T09:31:26;9.70;;;7.90;;
34142;SDS011;20419;10.658;106.724;2022-10-15T09:34:10;8.55;;;7.75;;
34142;SDS011;20419;10.658;106.724;2022-10-15T09:41:54;10.60;;;8.43;;
34142;SDS011;20419;10.658;106.724;2022-10-15T09:44:23;10.32;;;8.43;;
34142;SDS011;20419;10.658;106.724;2022-10-15T09:46:52;8.93;;;8.02;;
34142;SDS011;20419;10.658;106.724;2022-10-15T09:49:22;8.05;;;7.22;;
34142;SDS011;20419;10.658;106.724;2022-10-15T09:56:55;8.93;;;8.02;;
34142;SDS011;20419;10.658;106.724;2022-10-15T09:59:23;10.02;;;7.78;;
34142;SDS011;20419;10.658;106.724;2022-10-15T10:01:58;9.17;;;8.17;;
34142;SDS011;20419;10.658;106.724;2022-10-15T10:04:27;9.20;;;8.20;;
34142;SDS011;20419;10.658;106.724;2022-10-15T10:06:55;8.68;;;7.78;;
34142;SDS011;20419;10.658;106.724;2022-10-15T10:09:56;9.07;;;7.88;;
34142;SDS011;20419;10.658;106.724;2022-10-15T10:12:24;9.10;;;8.00;;
34142;SDS011;20419;10.658;106.724;2022-10-15T10:14:56;9.48;;;7.85;;
34142;SDS011;20419;10.658;106.724;2022-10-15T10:17:27;8.82;;;7.70;;
34142;SDS011;20419;10.658;106.724;2022-10-15T10:22:30;8.32;;;7.53;;
34142;SDS011;20419;10.658;106.724;2022-10-15T10:25:26;8.88;;;7.50;;
34142;SDS011;20419;10.658;106.724;2022-10-15T10:28:03;9.32;;;8.43;;
34142;SDS011;20419;10.658;106.724;2022-10-15T10:33:19;9.40;;;7.32;;
34142;SDS011;20419;10.658;106.724;2022-10-15T10:35:48;8.57;;;7.25;;
34142;SDS011;20419;10.658;106.724;2022-10-15T10:38:19;8.43;;;7.53;;
34142;SDS011;20419;10.658;106.724;2022-10-15T10:40:56;8.23;;;7.43;;
34142;SDS011;20419;10.658;106.724;2022-10-15T10:43:29;8.95;;;7.18;;
34142;SDS011;20419;10.658;106.724;2022-10-15T10:48:37;9.13;;;7.93;;
34142;SDS011;20419;10.658;106.724;2022-10-15T10:51:26;8.75;;;7.85;;
34142;SDS011;20419;10.658;106.724;2022-10-15T10:56:36;10.45;;;8.27;;
34142;SDS011;20419;10.658;106.724;2022-10-15T10:59:10;10.32;;;9.02;;
34142;SDS011;20419;10.658;106.724;2022-10-15T11:01:39;8.40;;;7.55;;
34142;SDS011;20419;10.658;106.724;2022-10-15T11:04:12;9.75;;;8.20;;
34142;SDS011;20419;10.658;106.724;2022-10-15T11:06:46;10.43;;;7.75;;
34142;SDS011;20419;10.658;106.724;2022-10-15T11:14:30;9.23;;;8.20;;
34142;SDS011;20419;10.658;106.724;2022-10-15T11:17:06;9.45;;;8.02;;
34142;SDS011;20419;10.658;106.724;2022-10-15T11:24:34;8.98;;;7.88;;
34142;SDS011;20419;10.658;106.724;2022-10-15T11:27:14;9.05;;;8.13;;
34142;SDS011;20419;10.658;106.724;2022-10-15T11:29:50;9.63;;;8.52;;
34142;SDS011;20419;10.658;106.724;2022-10-15T11:32:21;8.32;;;7.50;;
34142;SDS011;20419;10.658;106.724;2022-10-15T11:42:57;9.38;;;8.10;;
34142;SDS011;20419;10.658;106.724;2022-10-15T11:56:19;9.13;;;8.05;;
34142;SDS011;20419;10.658;106.724;2022-10-15T12:01:19;8.35;;;7.47;;
34142;SDS011;20419;10.658;106.724;2022-10-15T12:04:00;8.88;;;7.22;;
34142;SDS011;20419;10.658;106.724;2022-10-15T12:06:37;8.68;;;7.68;;
34142;SDS011;20419;10.658;106.724;2022-10-15T12:09:07;8.02;;;7.22;;
34142;SDS011;20419;10.658;106.724;2022-10-15T12:11:40;9.10;;;7.32;;
34142;SDS011;20419;10.658;106.724;2022-10-15T12:17:16;8.75;;;7.82;;
34142;SDS011;20419;10.658;106.724;2022-10-15T12:19:49;8.32;;;7.05;;
34142;SDS011;20419;10.658;106.724;2022-10-15T12:22:32;9.20;;;7.78;;
34142;SDS011;20419;10.658;106.724;2022-10-15T12:24:59;9.63;;;8.30;;
34142;SDS011;20419;10.658;106.724;2022-10-15T12:27:31;9.32;;;7.88;;
34142;SDS011;20419;10.658;106.724;2022-10-15T12:32:37;9.68;;;8.77;;
34142;SDS011;20419;10.658;106.724;2022-10-15T12:35:16;8.38;;;7.50;;
34142;SDS011;20419;10.658;106.724;2022-10-15T12:37:45;13.10;;;8.57;;
34142;SDS011;20419;10.658;106.724;2022-10-15T12:42:49;10.60;;;8.15;;
34142;SDS011;20419;10.658;106.724;2022-10-15T12:45:21;11.20;;;8.85;;
34142;SDS011;20419;10.658;106.724;2022-10-15T12:50:33;10.23;;;8.43;;
34142;SDS011;20419;10.658;106.724;2022-10-15T12:53:00;9.70;;;8.70;;
34142;SDS011;20419;10.658;106.724;2022-10-15T12:55:38;11.80;;;9.80;;
34142;SDS011;20419;10.658;106.724;2022-10-15T13:00:52;12.07;;;9.57;;
34142;SDS011;20419;10.658;106.724;2022-10-15T13:03:29;10.95;;;9.40;;
34142;SDS011;20419;10.658;106.724;2022-10-15T13:06:58;10.05;;;8.95;;
34142;SDS011;20419;10.658;106.724;2022-10-15T13:11:42;10.45;;;9.35;;
34142;SDS011;20419;10.658;106.724;2022-10-15T13:16:46;11.70;;;9.27;;
34142;SDS011;20419;10.658;106.724;2022-10-15T13:21:49;10.43;;;9.32;;
34142;SDS011;20419;10.658;106.724;2022-10-15T13:24:23;12.38;;;9.60;;
34142;SDS011;20419;10.658;106.724;2022-10-15T13:26:50;10.98;;;9.25;;
34142;SDS011;20419;10.658;106.724;2022-10-15T13:31:50;11.93;;;9.63;;
34142;SDS011;20419;10.658;106.724;2022-10-15T13:36:44;11.05;;;9.90;;
34142;SDS011;20419;10.658;106.724;2022-10-15T13:42:15;11.48;;;9.60;;
34142;SDS011;20419;10.658;106.724;2022-10-15T13:44:43;10.93;;;9.38;;
34142;SDS011;20419;10.658;106.724;2022-10-15T13:47:45;12.35;;;9.70;;
34142;SDS011;20419;10.658;106.724;2022-10-15T13:50:23;11.05;;;9.13;;
34142;SDS011;20419;10.658;106.724;2022-10-15T13:52:58;11.63;;;9.60;;
34142;SDS011;20419;10.658;106.724;2022-10-15T13:58:00;11.05;;;9.52;;
34142;SDS011;20419;10.658;106.724;2022-10-15T14:00:31;11.48;;;9.98;;
34142;SDS011;20419;10.658;106.724;2022-10-15T14:03:11;11.63;;;10.32;;
34142;SDS011;20419;10.658;106.724;2022-10-15T14:05:39;13.00;;;11.00;;
34142;SDS011;20419;10.658;106.724;2022-10-15T14:08:14;15.27;;;10.23;;
34142;SDS011;20419;10.658;106.724;2022-10-15T14:10:41;12.13;;;10.25;;
34142;SDS011;20419;10.658;106.724;2022-10-15T14:13:11;12.80;;;11.07;;
34142;SDS011;20419;10.658;106.724;2022-10-15T14:15:43;13.70;;;11.15;;
34142;SDS011;20419;10.658;106.724;2022-10-15T14:18:11;13.00;;;11.25;;
34142;SDS011;20419;10.658;106.724;2022-10-15T14:23:05;12.57;;;11.27;;
34142;SDS011;20419;10.658;106.724;2022-10-15T14:25:32;14.32;;;11.80;;
34142;SDS011;20419;10.658;106.724;2022-10-15T14:27:59;12.43;;;10.93;;
34142;SDS011;20419;10.658;106.724;2022-10-15T14:30:30;12.70;;;10.80;;
34142;SDS011;20419;10.658;106.724;2022-10-15T14:32:58;13.32;;;11.30;;
34142;SDS011;20419;10.658;106.724;2022-10-15T14:35:31;13.45;;;11.13;;
34142;SDS011;20419;10.658;106.724;2022-10-15T14:38:13;12.13;;;10.82;;
34142;SDS011;20419;10.658;106.724;2022-10-15T14:40:54;12.90;;;11.27;;
34142;SDS011;20419;10.658;106.724;2022-10-15T14:43:27;13.00;;;10.73;;
34142;SDS011;20419;10.658;106.724;2022-10-15T14:45:56;12.38;;;11.07;;
34142;SDS011;20419;10.658;106.724;2022-10-15T14:48:24;14.13;;;11.98;;
34142;SDS011;20419;10.658;106.724;2022-10-15T14:50:55;13.95;;;11.77;;
34142;SDS011;20419;10.658;106.724;2022-10-15T14:53:24;13.32;;;11.57;;
34142;SDS011;20419;10.658;106.724;2022-10-15T14:55:55;14.95;;;11.23;;
34142;SDS011;20419;10.658;106.724;2022-10-15T14:58:23;13.55;;;10.98;;
34142;SDS011;20419;10.658;106.724;2022-10-15T15:00:58;15.07;;;11.07;;
34142;SDS011;20419;10.658;106.724;2022-10-15T15:03:27;13.98;;;11.18;;
34142;SDS011;20419;10.658;106.724;2022-10-15T15:05:55;15.57;;;10.98;;
34142;SDS011;20419;10.658;106.724;2022-10-15T15:08:22;14.15;;;11.73;;
34142;SDS011;20419;10.658;106.724;2022-10-15T15:10:50;15.10;;;11.07;;
34142;SDS011;20419;10.658;106.724;2022-10-15T15:13:21;13.52;;;11.40;;
34142;SDS011;20419;10.658;106.724;2022-10-15T15:15:49;13.30;;;11.48;;
34142;SDS011;20419;10.658;106.724;2022-10-15T15:18:16;12.52;;;11.23;;
34142;SDS011;20419;10.658;106.724;2022-10-15T15:20:43;12.60;;;11.10;;
34142;SDS011;20419;10.658;106.724;2022-10-15T15:23:22;14.30;;;11.77;;
34142;SDS011;20419;10.658;106.724;2022-10-15T15:25:49;13.90;;;10.82;;
34142;SDS011;20419;10.658;106.724;2022-10-15T15:28:18;12.98;;;11.38;;
34142;SDS011;20419;10.658;106.724;2022-10-15T15:30:45;14.05;;;11.70;;
34142;SDS011;20419;10.658;106.724;2022-10-15T15:33:15;12.27;;;10.98;;
34142;SDS011;20419;10.658;106.724;2022-10-15T15:35:45;13.13;;;11.80;;
34142;SDS011;20419;10.658;106.724;2022-10-15T15:38:18;13.95;;;11.40;;
34142;SDS011;20419;10.658;106.724;2022-10-15T15:40:46;12.30;;;11.05;;
34142;SDS011;20419;10.658;106.724;2022-10-15T15:43:14;12.30;;;10.73;;
34142;SDS011;20419;10.658;106.724;2022-10-15T15:45:41;12.85;;;10.77;;
34142;SDS011;20419;10.658;106.724;2022-10-15T15:48:08;13.93;;;10.85;;
34142;SDS011;20419;10.658;106.724;2022-10-15T15:50:35;14.88;;;11.43;;
34142;SDS011;20419;10.658;106.724;2022-10-15T15:53:02;13.00;;;11.70;;
34142;SDS011;20419;10.658;106.724;2022-10-15T15:55:29;13.00;;;10.52;;
34142;SDS011;20419;10.658;106.724;2022-10-15T15:57:56;12.77;;;11.48;;
34142;SDS011;20419;10.658;106.724;2022-10-15T16:00:23;13.25;;;11.23;;
34142;SDS011;20419;10.658;106.724;2022-10-15T16:02:50;13.15;;;11.30;;
34142;SDS011;20419;10.658;106.724;2022-10-15T16:05:17;13.55;;;10.95;;
34142;SDS011;20419;10.658;106.724;2022-10-15T16:07:44;12.52;;;11.23;;
34142;SDS011;20419;10.658;106.724;2022-10-15T16:10:11;12.20;;;10.90;;
34142;SDS011;20419;10.658;106.724;2022-10-15T16:12:38;12.70;;;10.95;;
34142;SDS011;20419;10.658;106.724;2022-10-15T16:15:05;12.25;;;10.85;;
34142;SDS011;20419;10.658;106.724;2022-10-15T16:17:33;12.65;;;11.30;;
34142;SDS011;20419;10.658;106.724;2022-10-15T16:20:00;11.60;;;10.40;;